createdAt,value
2019-06-20T00:00:52.749Z,90.79
2019-06-20T00:03:25.964Z,90.98
2019-06-20T00:05:59.598Z,90.90
2019-06-20T00:08:33.574Z,91.61
2019-06-20T00:11:06.629Z,91.58
2019-06-20T00:13:40.506Z,91.76
2019-06-20T00:16:13.688Z,90.48
2019-06-20T00:18:49.916Z,89.77
2019-06-20T00:21:23.528Z,89.79
2019-06-20T00:24:01.043Z,89.69
2019-06-20T00:26:34.478Z,89.73
2019-06-20T00:29:07.825Z,90.45
2019-06-20T00:31:41.949Z,91.44
2019-06-20T00:34:15.962Z,92.00
2019-06-20T00:36:51.260Z,91.90
2019-06-20T00:39:24.206Z,91.55
2019-06-20T00:41:57.309Z,91.70
2019-06-20T00:44:31.267Z,90.94
2019-06-20T00:47:04.609Z,90.36
2019-06-20T00:49:37.929Z,90.36
2019-06-20T00:52:11.366Z,89.86
2019-06-20T00:54:44.228Z,89.81
2019-06-20T00:57:17.871Z,90.26
2019-06-20T00:59:58.840Z,91.32
2019-06-20T01:02:32.516Z,93.18
2019-06-20T01:05:06.376Z,94.49
2019-06-20T01:07:39.646Z,95.42
2019-06-20T01:10:13.484Z,96.42
2019-06-20T01:12:51.061Z,96.93
2019-06-20T01:15:24.898Z,96.93
2019-06-20T01:18:02.558Z,97.44
2019-06-20T01:20:35.801Z,97.83
2019-06-20T01:23:10.155Z,98.53
2019-06-20T01:25:45.316Z,99.14
2019-06-20T01:28:18.419Z,100.00
2019-06-20T01:30:52.107Z,99.59
2019-06-20T01:33:25.671Z,98.21
2019-06-20T01:35:59.001Z,96.44
2019-06-20T01:38:32.740Z,95.22
2019-06-20T01:41:06.327Z,94.75
2019-06-20T01:43:49.988Z,94.52
2019-06-20T01:46:14.816Z,94.60
2019-06-20T01:48:47.760Z,94.81
2019-06-20T01:51:20.800Z,95.46
2019-06-20T01:53:54.115Z,95.81
2019-06-20T01:56:27.163Z,96.47
2019-06-20T01:59:00.813Z,97.37
2019-06-20T02:01:33.983Z,98.18
2019-06-20T02:04:06.789Z,98.34
2019-06-20T02:06:39.993Z,98.25
2019-06-20T02:09:13.186Z,98.35
2019-06-20T02:11:46.253Z,99.01
2019-06-20T02:14:19.051Z,99.86
2019-06-20T02:16:52.347Z,100.00
2019-06-20T02:19:25.576Z,100.00
2019-06-20T02:21:58.768Z,100.00
2019-06-20T02:24:31.785Z,100.00
2019-06-20T02:27:07.258Z,100.00
2019-06-20T02:29:40.483Z,100.00
2019-06-20T02:32:13.654Z,100.00
2019-06-20T02:34:46.753Z,100.00
2019-06-20T02:37:19.483Z,100.00
2019-06-20T02:39:52.942Z,100.00
2019-06-20T02:42:26.135Z,100.00
2019-06-20T02:44:58.826Z,100.00
2019-06-20T02:47:31.823Z,100.00
2019-06-20T02:50:06.819Z,100.00
2019-06-20T02:52:40.990Z,100.00
2019-06-20T02:55:15.453Z,100.00
2019-06-20T02:57:48.912Z,100.00
2019-06-20T03:00:54.427Z,100.00
2019-06-20T03:03:28.242Z,100.00
2019-06-20T03:06:01.228Z,100.00
2019-06-20T03:08:34.267Z,100.00
2019-06-20T03:11:07.665Z,100.00
2019-06-20T03:13:41.363Z,100.00
2019-06-20T03:16:15.153Z,100.00
2019-06-20T03:18:48.605Z,100.00
2019-06-20T03:21:22.002Z,100.00
2019-06-20T03:23:56.135Z,100.00
2019-06-20T03:26:29.494Z,100.00
2019-06-20T03:29:02.880Z,100.00
2019-06-20T03:31:36.669Z,100.00
2019-06-20T03:34:10.717Z,100.00
2019-06-20T03:36:44.588Z,100.00
2019-06-20T03:39:18.379Z,100.00
2019-06-20T03:41:53.388Z,100.00
2019-06-20T03:44:27.337Z,100.00
2019-06-20T03:47:01.142Z,100.00
2019-06-20T03:49:35.149Z,100.00
2019-06-20T03:52:08.423Z,100.00
2019-06-20T03:54:41.998Z,100.00
2019-06-20T03:57:15.839Z,100.00
2019-06-20T03:59:51.031Z,100.00
2019-06-20T04:02:25.043Z,100.00
2019-06-20T04:04:58.427Z,100.00
2019-06-20T04:07:32.105Z,100.00
2019-06-20T04:10:06.406Z,100.00
2019-06-20T04:12:39.787Z,100.00
2019-06-20T04:15:19.204Z,100.00
2019-06-20T04:17:47.939Z,100.00
2019-06-20T04:20:22.823Z,100.00
2019-06-20T04:22:55.680Z,100.00
2019-06-20T04:25:29.286Z,100.00
2019-06-20T04:28:02.712Z,100.00
2019-06-20T04:30:38.115Z,100.00
2019-06-20T04:33:12.588Z,100.00
2019-06-20T04:35:45.722Z,100.00
2019-06-20T04:38:19.323Z,100.00
2019-06-20T04:40:53.299Z,100.00
2019-06-20T04:43:26.868Z,100.00
2019-06-20T04:46:22.398Z,98.96
2019-06-20T04:48:56.261Z,98.89
2019-06-20T04:51:29.908Z,98.01
2019-06-20T04:54:04.350Z,97.01
2019-06-20T04:56:38.681Z,96.56
2019-06-20T04:59:11.916Z,95.77
2019-06-20T05:01:45.251Z,95.56
2019-06-20T05:04:19.048Z,94.81
2019-06-20T05:06:57.480Z,94.96
2019-06-20T05:09:32.191Z,94.46
2019-06-20T05:12:06.433Z,93.82
2019-06-20T05:14:39.742Z,93.93
2019-06-20T05:17:13.885Z,93.47
2019-06-20T05:19:48.658Z,93.07
2019-06-20T05:22:22.293Z,92.92
2019-06-20T05:24:55.830Z,92.46
2019-06-20T05:27:28.899Z,92.31
2019-06-20T05:30:02.701Z,91.76
2019-06-20T05:32:39.002Z,91.38
2019-06-20T05:35:13.086Z,91.13
2019-06-20T05:37:46.687Z,90.97
2019-06-20T05:40:20.636Z,90.08
2019-06-20T05:42:53.958Z,89.56
2019-06-20T05:45:27.400Z,89.28
2019-06-20T05:48:00.870Z,88.85
2019-06-20T05:50:35.024Z,87.61
2019-06-20T05:53:08.610Z,86.16
2019-06-20T05:55:44.298Z,84.82
2019-06-20T05:58:18.014Z,84.12
2019-06-20T06:00:51.997Z,82.86
2019-06-20T06:03:26.158Z,82.66
2019-06-20T06:06:00.124Z,82.31
2019-06-20T06:08:34.053Z,82.01
2019-06-20T06:11:07.784Z,82.07
2019-06-20T06:13:41.827Z,82.58
2019-06-20T06:16:25.744Z,82.10
2019-06-20T06:18:51.392Z,81.34
2019-06-20T06:21:26.215Z,80.04
2019-06-20T06:23:59.744Z,79.18
2019-06-20T06:26:33.102Z,73.55
2019-06-20T06:29:07.157Z,66.73
2019-06-20T06:31:41.827Z,63.44
2019-06-20T06:34:16.726Z,58.46
2019-06-20T06:36:50.811Z,55.82
2019-06-20T06:39:24.719Z,55.80
2019-06-20T06:41:59.406Z,53.87
2019-06-20T06:44:35.120Z,51.64
2019-06-20T06:47:08.670Z,50.36
2019-06-20T06:49:42.377Z,48.73
2019-06-20T06:52:15.863Z,48.30
2019-06-20T06:54:49.322Z,48.42
2019-06-20T06:57:23.442Z,51.49
2019-06-20T06:59:57.190Z,51.36
2019-06-20T07:02:30.355Z,49.30
2019-06-20T07:05:03.358Z,49.22
2019-06-20T07:07:37.380Z,48.52
2019-06-20T07:10:12.096Z,48.54
2019-06-20T07:12:45.670Z,46.82
2019-06-20T07:15:21.601Z,47.24
2019-06-20T07:17:55.909Z,47.32
2019-06-20T07:20:29.547Z,50.66
2019-06-20T07:23:29.251Z,50.18
2019-06-20T07:26:05.340Z,48.37
2019-06-20T07:28:39.173Z,56.09
2019-06-20T07:31:13.516Z,56.28
2019-06-20T07:33:46.837Z,52.53
2019-06-20T07:36:21.152Z,52.55
2019-06-20T07:38:55.029Z,53.84
2019-06-20T07:41:32.246Z,51.29
2019-06-20T07:44:05.427Z,53.51
2019-06-20T07:46:39.528Z,48.95
2019-06-20T07:49:13.402Z,46.76
2019-06-20T07:51:47.196Z,47.69
2019-06-20T07:54:21.313Z,43.95
2019-06-20T07:56:55.165Z,42.99
2019-06-20T07:59:29.670Z,44.34
2019-06-20T08:02:03.707Z,44.46
2019-06-20T08:04:38.190Z,42.29
2019-06-20T08:07:11.990Z,44.01
2019-06-20T08:09:46.692Z,42.43
2019-06-20T08:12:21.015Z,47.16
2019-06-20T08:14:54.951Z,47.85
2019-06-20T08:17:35.367Z,45.90
2019-06-20T08:20:08.094Z,44.95
2019-06-20T08:22:43.960Z,42.33
2019-06-20T08:25:20.545Z,45.58
2019-06-20T08:27:55.988Z,43.99
2019-06-20T08:30:32.314Z,41.44
2019-06-20T08:33:11.727Z,38.58
2019-06-20T08:35:45.553Z,39.16
2019-06-20T08:38:19.223Z,34.70
2019-06-20T08:40:53.338Z,30.74
2019-06-20T08:43:27.785Z,30.01
2019-06-20T08:46:01.798Z,28.64
2019-06-20T08:48:36.209Z,30.28
2019-06-20T08:51:10.071Z,28.61
2019-06-20T08:53:45.060Z,31.21
2019-06-20T08:56:18.943Z,30.41
2019-06-20T08:58:52.605Z,30.70
2019-06-20T09:01:26.384Z,29.00
2019-06-20T09:04:00.338Z,27.08
2019-06-20T09:06:34.370Z,26.39
2019-06-20T09:09:10.638Z,25.85
2019-06-20T09:11:45.223Z,30.51
2019-06-20T09:14:20.808Z,29.42
2019-06-20T09:16:56.434Z,33.45
2019-06-20T09:19:32.056Z,32.66
2019-06-20T09:22:05.943Z,31.78
2019-06-20T09:24:42.813Z,29.84
2019-06-20T09:27:16.306Z,34.41
2019-06-20T09:29:50.009Z,35.94
2019-06-20T09:32:25.546Z,33.36
2019-06-20T09:34:59.714Z,32.83
2019-06-20T09:37:33.715Z,27.19
2019-06-20T09:40:08.208Z,27.28
2019-06-20T09:42:42.588Z,30.04
2019-06-20T09:45:17.875Z,29.17
2019-06-20T09:47:53.532Z,26.79
2019-06-20T09:50:30.146Z,30.39
2019-06-20T09:53:04.788Z,27.44
2019-06-20T09:55:39.781Z,25.36
2019-06-20T09:58:18.080Z,23.82
2019-06-20T10:00:55.032Z,27.63
2019-06-20T10:03:35.133Z,30.04
2019-06-20T10:06:14.242Z,29.19
2019-06-20T10:08:50.090Z,27.99
2019-06-20T10:11:25.467Z,29.39
2019-06-20T10:14:01.235Z,32.63
2019-06-20T10:16:45.398Z,30.58
2019-06-20T10:19:13.461Z,31.50
2019-06-20T10:21:51.814Z,31.37
2019-06-20T10:24:25.968Z,28.11
2019-06-20T10:27:00.478Z,29.81
2019-06-20T10:29:34.482Z,29.87
2019-06-20T10:32:08.367Z,31.43
2019-06-20T10:34:41.920Z,32.38
2019-06-20T10:37:16.641Z,30.73
2019-06-20T10:39:52.105Z,28.87
2019-06-20T10:42:25.809Z,28.21
2019-06-20T10:45:01.248Z,30.17
2019-06-20T10:47:36.861Z,28.91
2019-06-20T10:50:15.738Z,32.67
2019-06-20T10:52:51.741Z,30.77
2019-06-20T10:55:28.590Z,28.38
2019-06-20T10:58:04.131Z,28.44
2019-06-20T11:00:39.841Z,30.11
2019-06-20T11:03:18.597Z,31.50
2019-06-20T11:06:04.955Z,28.48
2019-06-20T11:08:41.791Z,27.76
2019-06-20T11:11:17.605Z,29.87
2019-06-20T11:13:57.564Z,27.07
2019-06-20T11:16:31.958Z,26.71
2019-06-20T11:19:09.289Z,25.12
2019-06-20T11:21:48.211Z,26.31
2019-06-20T11:24:23.211Z,26.01
2019-06-20T11:26:57.610Z,30.61
2019-06-20T11:29:32.939Z,27.01
2019-06-20T11:32:07.238Z,25.51
2019-06-20T11:34:42.571Z,26.59
2019-06-20T11:37:16.293Z,27.00
2019-06-20T11:39:51.321Z,28.62
2019-06-20T11:42:26.407Z,29.15
2019-06-20T11:45:03.004Z,29.06
2019-06-20T11:47:38.279Z,26.76
2019-06-20T11:50:12.810Z,26.48
2019-06-20T11:52:47.511Z,26.80
2019-06-20T11:55:23.651Z,29.83
2019-06-20T11:57:58.394Z,31.08
2019-06-20T12:00:32.424Z,28.90
2019-06-20T12:03:11.230Z,28.62
2019-06-20T12:05:47.337Z,27.58
2019-06-20T12:08:22.256Z,25.13
2019-06-20T12:10:57.929Z,23.97
2019-06-20T12:13:34.631Z,23.48
2019-06-20T12:16:09.834Z,23.27
2019-06-20T12:18:45.187Z,23.17
2019-06-20T12:21:19.943Z,22.08
2019-06-20T12:23:53.426Z,23.01
2019-06-20T12:26:28.593Z,22.55
2019-06-20T12:29:07.578Z,22.82
2019-06-20T12:31:43.103Z,22.82
2019-06-20T12:34:18.571Z,26.14
2019-06-20T12:36:53.981Z,25.00
2019-06-20T12:39:38.651Z,24.09
2019-06-20T12:42:15.050Z,23.90
2019-06-20T12:44:50.815Z,24.63
2019-06-20T12:47:26.779Z,26.95
2019-06-20T12:50:02.178Z,24.85
2019-06-20T12:52:41.322Z,26.97
2019-06-20T12:55:32.192Z,26.69
2019-06-20T12:58:12.284Z,27.15
2019-06-20T13:00:46.975Z,24.43
2019-06-20T13:03:22.984Z,24.25
2019-06-20T13:05:58.512Z,26.10
2019-06-20T13:08:33.930Z,24.48
2019-06-20T13:11:08.470Z,25.40
2019-06-20T13:13:44.407Z,26.46
2019-06-20T13:16:22.414Z,28.77
2019-06-20T13:18:56.309Z,26.43
2019-06-20T13:21:33.704Z,29.30
2019-06-20T13:24:09.432Z,26.13
2019-06-20T13:26:43.907Z,25.04
2019-06-20T13:29:22.463Z,23.81
2019-06-20T13:32:03.887Z,23.82
2019-06-20T13:34:31.977Z,25.46
2019-06-20T13:37:07.414Z,24.47
2019-06-20T13:39:41.698Z,24.99
2019-06-20T13:42:20.358Z,24.54
2019-06-20T13:44:55.028Z,25.63
2019-06-20T13:47:29.836Z,26.90
2019-06-20T13:50:03.589Z,25.66
2019-06-20T13:52:43.552Z,25.49
2019-06-20T13:55:16.569Z,26.21
2019-06-20T13:57:52.711Z,26.21
2019-06-20T14:00:27.794Z,28.15
2019-06-20T14:03:01.573Z,29.69
2019-06-20T14:05:35.559Z,28.20
2019-06-20T14:08:11.612Z,26.24
2019-06-20T14:10:47.672Z,26.15
2019-06-20T14:13:21.717Z,29.45
2019-06-20T14:15:55.894Z,26.65
2019-06-20T14:18:29.854Z,28.81
2019-06-20T14:21:04.835Z,29.91
2019-06-20T14:23:46.167Z,30.51
2019-06-20T14:26:21.103Z,32.57
2019-06-20T14:28:55.796Z,32.57
2019-06-20T14:31:31.453Z,31.19
2019-06-20T14:34:05.499Z,30.88
2019-06-20T14:36:39.255Z,31.68
2019-06-20T14:39:13.175Z,29.75
2019-06-20T14:41:48.599Z,29.22
2019-06-20T14:44:23.456Z,28.10
2019-06-20T14:46:57.481Z,28.03
2019-06-20T14:50:45.539Z,30.37
2019-06-20T14:59:16.665Z,29.25
2019-06-20T15:02:57.812Z,29.22
2019-06-20T15:07:03.206Z,27.77
2019-06-20T15:11:02.811Z,27.64
2019-06-20T15:14:57.259Z,27.97
2019-06-20T15:18:40.761Z,28.26
2019-06-20T15:22:24.019Z,28.77
2019-06-20T15:30:12.921Z,30.45
2019-06-20T15:34:30.335Z,28.76
2019-06-20T15:42:30.841Z,26.86
2019-06-20T15:45:05.296Z,27.54
2019-06-20T15:49:19.287Z,27.73
2019-06-20T15:51:58.804Z,28.24
2019-06-20T15:55:08.666Z,30.02
2019-06-20T15:57:45.744Z,30.75
2019-06-20T16:00:19.827Z,31.01
2019-06-20T16:03:05.885Z,30.77
2019-06-20T16:05:30.548Z,30.69
2019-06-20T16:08:05.439Z,30.37
2019-06-20T16:10:42.612Z,30.00
2019-06-20T16:13:18.239Z,30.10
2019-06-20T16:15:52.795Z,30.05
2019-06-20T16:18:27.386Z,30.49
2019-06-20T16:21:03.992Z,30.42
2019-06-20T16:23:38.662Z,31.26
2019-06-20T16:26:12.424Z,28.38
2019-06-20T16:28:46.609Z,29.54
2019-06-20T16:31:26.821Z,28.94
2019-06-20T16:33:56.941Z,27.45
2019-06-20T16:36:30.913Z,28.15
2019-06-20T16:39:08.659Z,28.52
2019-06-20T16:41:43.170Z,29.16
2019-06-20T16:44:21.705Z,29.06
2019-06-20T16:46:53.975Z,30.27
2019-06-20T16:49:30.236Z,30.69
2019-06-20T16:52:04.526Z,30.00
2019-06-20T16:54:42.869Z,30.76
2019-06-20T16:57:17.802Z,30.33
2019-06-20T16:59:57.855Z,31.03
2019-06-20T17:02:31.874Z,30.79
2019-06-20T17:05:06.107Z,31.03
2019-06-20T17:07:40.502Z,30.32
2019-06-20T17:10:15.037Z,31.15
2019-06-20T17:12:51.611Z,31.88
2019-06-20T17:15:26.300Z,32.97
2019-06-20T17:18:01.271Z,32.59
2019-06-20T17:20:36.621Z,32.65
2019-06-20T17:23:10.674Z,32.83
2019-06-20T17:25:44.770Z,33.78
2019-06-20T17:28:19.666Z,34.08
2019-06-20T17:30:54.536Z,34.53
2019-06-20T17:33:32.289Z,34.68
2019-06-20T17:36:17.717Z,35.27
2019-06-20T17:38:44.657Z,36.09
2019-06-20T17:41:18.741Z,36.06
2019-06-20T17:43:55.856Z,36.38
2019-06-20T17:46:30.399Z,36.51
2019-06-20T17:49:07.372Z,36.86
2019-06-20T17:51:40.945Z,38.02
2019-06-20T17:54:15.076Z,38.20
2019-06-20T17:56:49.612Z,38.74
2019-06-20T17:59:24.121Z,39.17
2019-06-20T18:01:59.462Z,39.90
2019-06-20T18:04:35.199Z,40.03
2019-06-20T18:07:11.607Z,40.70
2019-06-20T18:09:46.880Z,40.82
2019-06-20T18:12:21.272Z,41.26
2019-06-20T18:14:56.424Z,41.75
2019-06-20T18:17:30.716Z,41.80
2019-06-20T18:20:07.459Z,42.34
2019-06-20T18:22:42.335Z,42.72
2019-06-20T18:25:18.567Z,42.68
2019-06-20T18:27:52.791Z,43.01
2019-06-20T18:30:39.903Z,43.29
2019-06-20T18:33:14.229Z,43.68
2019-06-20T18:35:48.436Z,43.88
2019-06-20T18:38:26.516Z,44.46
2019-06-20T18:41:02.278Z,44.53
2019-06-20T18:43:41.893Z,44.52
2019-06-20T18:46:17.247Z,44.80
2019-06-20T18:49:06.433Z,45.21
2019-06-20T18:51:42.751Z,45.35
2019-06-20T18:54:25.736Z,45.77
2019-06-20T18:56:56.172Z,46.32
2019-06-20T18:59:32.827Z,46.16
2019-06-20T19:02:10.052Z,45.92
2019-06-20T19:04:49.501Z,46.09
2019-06-20T19:07:21.131Z,46.44
2019-06-20T19:09:55.971Z,46.73
2019-06-20T19:12:31.697Z,46.81
2019-06-20T19:15:06.349Z,47.08
2019-06-20T19:17:41.917Z,48.17
2019-06-20T19:20:16.453Z,48.54
2019-06-20T19:22:54.196Z,48.71
2019-06-20T19:25:34.373Z,47.56
2019-06-20T19:28:14.007Z,45.56
2019-06-20T19:30:57.306Z,45.65
2019-06-20T19:33:33.685Z,45.49
2019-06-20T19:36:09.055Z,45.78
2019-06-20T19:38:45.155Z,45.16
2019-06-20T19:41:23.003Z,45.38
2019-06-20T19:44:02.758Z,45.20
2019-06-20T19:46:54.974Z,45.85
2019-06-20T19:49:33.692Z,46.16
2019-06-20T19:52:11.238Z,45.91
2019-06-20T19:54:48.219Z,46.42
2019-06-20T19:57:30.088Z,46.83
2019-06-20T20:00:10.408Z,47.30
2019-06-20T20:02:46.694Z,49.62
2019-06-20T20:05:27.807Z,50.78
2019-06-20T20:08:04.053Z,51.80
2019-06-20T20:10:58.029Z,52.28
2019-06-20T20:13:33.604Z,52.22
2019-06-20T20:16:14.171Z,52.25
2019-06-20T20:18:55.018Z,51.71
2019-06-20T20:21:34.313Z,50.36
2019-06-20T20:24:10.159Z,50.72
2019-06-20T20:26:51.609Z,50.46
2019-06-20T20:29:31.717Z,50.66
2019-06-20T20:32:11.680Z,51.68
2019-06-20T20:34:59.140Z,53.43
2019-06-20T20:37:51.702Z,54.24
2019-06-20T20:40:28.349Z,55.41
2019-06-20T20:43:06.709Z,55.47
2019-06-20T20:45:42.970Z,55.40
2019-06-20T20:48:24.806Z,55.90
2019-06-20T20:50:59.926Z,55.72
2019-06-20T20:53:36.640Z,56.54
2019-06-20T20:56:18.765Z,56.56
2019-06-20T20:58:59.325Z,57.26
2019-06-20T21:01:37.907Z,57.65
2019-06-20T21:04:20.237Z,58.78
2019-06-20T21:06:55.774Z,59.63
2019-06-20T21:09:34.869Z,60.71
2019-06-20T21:12:10.133Z,61.66
2019-06-20T21:14:44.160Z,62.68
2019-06-20T21:17:19.446Z,63.37
2019-06-20T21:19:53.984Z,64.26
2019-06-20T21:22:29.074Z,64.93
2019-06-20T21:25:03.808Z,65.11
2019-06-20T21:27:40.855Z,65.31
2019-06-20T21:30:15.046Z,64.96
2019-06-20T21:32:50.139Z,65.61
2019-06-20T21:35:25.042Z,65.85
2019-06-20T21:37:59.061Z,65.79
2019-06-20T21:40:33.067Z,66.31
2019-06-20T21:43:07.226Z,67.15
2019-06-20T21:45:43.082Z,68.01
2019-06-20T21:48:17.712Z,68.64
2019-06-20T21:50:52.332Z,68.48
2019-06-20T21:53:26.641Z,68.76
2019-06-20T21:56:01.584Z,68.77
2019-06-20T21:58:45.550Z,69.46
2019-06-20T22:01:22.216Z,70.29
2019-06-20T22:03:58.347Z,71.32
2019-06-20T22:06:33.373Z,71.52
2019-06-20T22:09:10.149Z,71.59
2019-06-20T22:11:45.025Z,72.41
2019-06-20T22:14:19.355Z,72.44
2019-06-20T22:16:54.166Z,73.01
2019-06-20T22:19:28.315Z,73.28
2019-06-20T22:22:03.428Z,72.91
2019-06-20T22:24:38.332Z,72.45
2019-06-20T22:27:13.342Z,72.01
2019-06-20T22:29:48.342Z,72.10
2019-06-20T22:32:22.348Z,72.36
2019-06-20T22:34:57.196Z,72.56
2019-06-20T22:37:31.984Z,73.06
2019-06-20T22:40:06.334Z,72.83
2019-06-20T22:42:40.071Z,72.99
2019-06-20T22:45:15.233Z,73.01
2019-06-20T22:47:50.296Z,72.67
2019-06-20T22:50:24.320Z,73.02
2019-06-20T22:52:58.544Z,73.41
2019-06-20T22:55:32.940Z,73.74
2019-06-20T22:58:09.579Z,73.96
2019-06-20T23:00:43.448Z,74.43
2019-06-20T23:03:16.694Z,74.80
2019-06-20T23:05:50.751Z,75.20
2019-06-20T23:08:26.348Z,75.32
2019-06-20T23:11:00.404Z,74.75
2019-06-20T23:13:36.283Z,74.66
2019-06-20T23:16:10.494Z,75.32
2019-06-20T23:18:45.071Z,75.26
2019-06-20T23:21:19.052Z,74.77
2019-06-20T23:23:52.454Z,75.04
2019-06-20T23:26:26.446Z,75.26
2019-06-20T23:29:17.168Z,75.02
2019-06-20T23:31:50.711Z,75.16
2019-06-20T23:34:24.645Z,75.37
2019-06-20T23:37:12.380Z,75.55
2019-06-20T23:39:34.947Z,75.80
2019-06-20T23:42:09.191Z,76.29
2019-06-20T23:44:42.169Z,77.96
2019-06-20T23:47:15.481Z,78.85
2019-06-20T23:49:48.570Z,79.50
2019-06-20T23:52:26.699Z,79.83
2019-06-20T23:55:00.413Z,79.35
2019-06-20T23:57:34.508Z,79.29
